Time,TemperatureF,DewpointF,PressureIn,WindDirection,WindDirectionDegrees,WindSpeedMPH,WindSpeedGustMPH,Humidity,HourlyPrecipIn,Conditions,Clouds,dailyrainin,SoftwareType,DateUTC
2013-03-14 00:00:00,27.6,19.8,30.15,West,271,3.0,5.0,72,0.00,,---,0.00,VWS V14.01,2013-03-14 04:00:00,
2013-03-14 00:05:00,27.6,19.8,30.16,ENE,70,6.0,13.0,72,0.00,,---,0.00,VWS V14.01,2013-03-14 04:05:00,
2013-03-14 00:10:00,27.6,19.8,30.16,ENE,63,4.0,8.0,72,0.00,,---,0.00,VWS V14.01,2013-03-14 04:10:00,
2013-03-14 00:15:00,27.6,19.8,30.16,SW,227,2.0,8.0,72,0.00,,---,0.00,VWS V14.01,2013-03-14 04:15:00,
2013-03-14 00:20:00,27.6,19.8,30.16,ESE,123,2.0,6.0,72,0.00,,---,0.00,VWS V14.01,2013-03-14 04:20:00,
2013-03-14 00:25:00,27.6,19.8,30.16,SE,136,2.0,7.0,72,0.00,,---,0.00,VWS V14.01,2013-03-14 04:25:00,
2013-03-14 07:58:00,25.4,16.0,30.24,NW,313,5.0,5.0,67,0.00,,---,0.00,VWS V14.01,2013-03-14 11:58:00,
2013-03-14 08:00:00,25.4,16.3,30.24,East,81,3.0,5.0,68,0.00,,---,0.00,VWS V14.01,2013-03-14 12:00:00,
2013-03-14 08:03:00,25.3,16.6,30.25,NNE,31,2.0,9.0,69,0.00,,---,0.00,VWS V14.01,2013-03-14 12:03:00,
2013-03-14 08:08:00,25.3,16.6,30.25,WSW,256,1.0,10.0,69,0.00,,---,0.00,VWS V14.01,2013-03-14 12:08:00,
2013-03-14 08:10:00,25.3,16.6,30.25,WSW,252,3.0,10.0,69,0.00,,---,0.00,VWS V14.01,2013-03-14 12:10:00,
2013-03-14 08:13:00,25.3,16.6,30.24,SW,236,4.0,10.0,69,0.00,,---,0.00,VWS V14.01,2013-03-14 12:13:00,
2013-03-14 08:18:00,25.2,16.5,30.25,SW,236,1.0,14.0,69,0.00,,---,0.00,VWS V14.01,2013-03-14 12:18:00,
2013-03-14 08:20:00,25.2,16.5,30.25,WSW,246,6.0,14.0,69,0.00,,---,0.00,VWS V14.01,2013-03-14 12:20:00,
2013-03-14 08:23:00,25.2,16.5,30.25,East,87,3.0,8.0,69,0.00,,---,0.00,VWS V14.01,2013-03-14 12:23:00,
2013-03-14 08:29:00,25.2,16.8,30.25,West,273,1.0,8.0,70,0.00,,---,0.00,VWS V14.01,2013-03-14 12:29:00,
2013-03-14 08:30:00,25.2,16.8,30.25,NNE,30,0.0,8.0,70,0.00,,---,0.00,VWS V14.01,2013-03-14 12:30:00,
2013-03-14 08:33:00,25.2,16.8,30.25,ESE,111,2.0,10.0,70,0.00,,---,0.00,VWS V14.01,2013-03-14 12:33:00,
2013-03-14 08:39:00,25.2,16.8,30.26,SW,234,3.0,10.0,70,0.00,,---,0.00,VWS V14.01,2013-03-14 12:39:00,
2013-03-14 08:40:00,25.2,16.8,30.26,WSW,253,8.0,10.0,70,0.00,,---,0.00,VWS V14.01,2013-03-14 12:40:00,
2013-03-14 08:44:00,25.3,16.9,30.26,SE,140,2.0,8.0,70,0.00,,---,0.00,VWS V14.01,2013-03-14 12:44:00,
2013-03-14 08:49:00,25.3,16.9,30.26,WSW,242,2.0,9.0,70,0.00,,---,0.00,VWS V14.01,2013-03-14 12:49:00,
2013-03-14 08:50:00,25.3,16.9,30.26,SW,217,4.0,9.0,70,0.00,,---,0.00,VWS V14.01,2013-03-14 12:50:00,
2013-03-14 08:54:00,25.3,16.9,30.26,East,94,5.0,6.0,70,0.00,,---,0.00,VWS V14.01,2013-03-14 12:54:00,
2013-03-14 08:59:00,25.5,17.1,30.26,ESE,112,0.0,7.0,70,0.00,,---,0.00,VWS V14.01,2013-03-14 12:59:00,
2013-03-14 09:00:00,25.5,17.1,30.26,ESE,115,1.0,7.0,70,0.00,,---,0.00,VWS V14.01,2013-03-14 13:00:00,
2013-03-14 09:04:00,25.7,17.0,30.25,SE,128,1.0,9.0,69,0.00,,---,0.00,VWS V14.01,2013-03-14 13:04:00,
2013-03-14 09:09:00,25.9,16.8,30.25,West,263,7.0,12.0,68,0.00,,---,0.00,VWS V14.01,2013-03-14 13:09:00,
2013-03-14 09:10:00,25.9,16.8,30.25,West,271,6.0,12.0,68,0.00,,---,0.00,VWS V14.01,2013-03-14 13:10:00,
2013-03-14 09:14:00,26.1,17.0,30.25,ESE,111,2.0,14.0,68,0.00,,---,0.00,VWS V14.01,2013-03-14 13:14:00,
2013-03-14 09:19:00,26.1,17.0,30.26,SSE,161,1.0,14.0,68,0.00,,---,0.00,VWS V14.01,2013-03-14 13:19:00,
2013-03-14 09:20:00,26.1,17.0,30.26,West,279,3.0,14.0,68,0.00,,---,0.00,VWS V14.01,2013-03-14 13:20:00,
2013-03-14 09:24:00,26.1,16.7,30.25,SW,232,7.0,9.0,67,0.00,,---,0.00,VWS V14.01,2013-03-14 13:24:00,
2013-03-14 09:29:00,26.7,17.2,30.25,South,169,2.0,10.0,67,0.00,,---,0.00,VWS V14.01,2013-03-14 13:29:00,
2013-03-14 09:30:00,26.7,17.2,30.25,SW,223,0.0,10.0,67,0.00,,---,0.00,VWS V14.01,2013-03-14 13:30:00,
2013-03-14 09:34:00,27.0,17.5,30.25,NNE,17,1.0,6.0,67,0.00,,---,0.00,VWS V14.01,2013-03-14 13:34:00,
2013-03-14 09:39:00,27.1,18.0,30.25,SW,223,0.0,8.0,68,0.00,,---,0.00,VWS V14.01,2013-03-14 13:39:00,
2013-03-14 09:40:00,27.1,18.0,30.25,ENE,71,2.0,8.0,68,0.00,,---,0.00,VWS V14.01,2013-03-14 13:40:00,
2013-03-14 09:44:00,27.7,17.8,30.25,SW,230,6.0,8.0,66,0.00,,---,0.00,VWS V14.01,2013-03-14 13:44:00,
2013-03-14 09:49:00,27.3,17.5,30.25,NNE,28,2.0,11.0,66,0.00,,---,0.00,VWS V14.01,2013-03-14 13:49:00,
2013-03-14 09:50:00,27.3,17.5,30.25,NNW,340,6.0,11.0,66,0.00,,---,0.00,VWS V14.01,2013-03-14 13:50:00,
2013-03-14 09:54:00,27.0,17.2,30.26,NW,308,2.0,9.0,66,0.00,,---,0.00,VWS V14.01,2013-03-14 13:54:00,
2013-03-14 09:59:00,27.0,17.5,30.25,WSW,257,7.0,13.0,67,0.00,,---,0.00,VWS V14.01,2013-03-14 13:59:00,
2013-03-14 10:00:00,27.0,17.5,30.25,WSW,257,7.0,13.0,67,0.00,,---,0.00,VWS V14.01,2013-03-14 14:00:00,
2013-03-14 10:04:00,27.4,17.5,30.25,WSW,244,4.0,14.0,66,0.00,,---,0.00,VWS V14.01,2013-03-14 14:04:00,
2013-03-14 10:09:00,28.0,17.8,30.25,WSW,245,3.0,14.0,65,0.00,,---,0.00,VWS V14.01,2013-03-14 14:09:00,
2013-03-14 10:10:00,28.0,17.8,30.25,West,267,3.0,14.0,65,0.00,,---,0.00,VWS V14.01,2013-03-14 14:10:00,
2013-03-14 10:14:00,27.8,17.6,30.25,WSW,244,2.0,11.0,65,0.00,,---,0.00,VWS V14.01,2013-03-14 14:14:00,
2013-03-14 10:19:00,28.2,18.3,30.25,NW,306,2.0,11.0,66,0.00,,---,0.00,VWS V14.01,2013-03-14 14:19:00,
2013-03-14 10:20:00,28.2,18.3,30.25,WSW,254,2.0,11.0,66,0.00,,---,0.00,VWS V14.01,2013-03-14 14:20:00,
2013-03-14 10:24:00,28.4,17.4,30.25,West,265,5.0,16.0,63,0.00,,---,0.00,VWS V14.01,2013-03-14 14:24:00,
2013-03-14 10:29:00,29.0,18.7,30.25,South,180,3.0,16.0,65,0.00,,---,0.00,VWS V14.01,2013-03-14 14:29:00,
2013-03-14 10:30:00,29.0,18.4,30.25,East,86,1.0,16.0,64,0.00,,---,0.00,VWS V14.01,2013-03-14 14:30:00,
2013-03-14 10:34:00,29.1,18.5,30.24,East,89,1.0,10.0,64,0.00,,---,0.00,VWS V14.01,2013-03-14 14:34:00,
2013-03-14 10:39:00,29.3,19.0,30.24,SSE,157,1.0,10.0,65,0.00,,---,0.00,VWS V14.01,2013-03-14 14:39:00,
2013-03-14 10:40:00,29.3,19.0,30.24,NE,36,3.0,10.0,65,0.00,,---,0.00,VWS V14.01,2013-03-14 14:40:00,
2013-03-14 10:44:00,29.8,18.8,30.24,WSW,254,7.0,11.0,63,0.00,,---,0.00,VWS V14.01,2013-03-14 14:44:00,
2013-03-14 10:49:00,29.8,18.0,30.24,SW,217,2.0,14.0,61,0.00,,---,0.00,VWS V14.01,2013-03-14 14:49:00,
2013-03-14 10:50:00,29.8,18.0,30.24,SW,217,2.0,14.0,61,0.00,,---,0.00,VWS V14.01,2013-03-14 14:50:00,
2013-03-14 10:54:00,30.2,18.8,30.24,WSW,248,5.0,10.0,62,0.00,,---,0.00,VWS V14.01,2013-03-14 14:54:00,
2013-03-14 10:59:00,30.8,18.6,30.24,NNE,30,2.0,10.0,60,0.00,,---,0.00,VWS V14.01,2013-03-14 14:59:00,
2013-03-14 11:00:00,30.8,18.6,30.24,NNE,30,2.0,10.0,60,0.00,,---,0.00,VWS V14.01,2013-03-14 15:00:00,
2013-03-14 11:04:00,30.3,17.7,30.24,West,259,4.0,13.0,59,0.00,,---,0.00,VWS V14.01,2013-03-14 15:04:00,
2013-03-14 11:09:00,30.8,19.3,30.24,NNE,22,4.0,5.0,62,0.00,,---,0.00,VWS V14.01,2013-03-14 15:09:00,
2013-03-14 11:10:00,30.8,19.0,30.24,NNE,16,5.0,13.0,61,0.00,,---,0.00,VWS V14.01,2013-03-14 15:10:00,
2013-03-14 11:14:00,31.3,19.8,30.24,SE,130,5.0,9.0,62,0.00,,---,0.00,VWS V14.01,2013-03-14 15:14:00,
2013-03-14 11:19:00,31.0,18.0,30.24,WSW,245,7.0,12.0,58,0.00,,---,0.00,VWS V14.01,2013-03-14 15:19:00,
2013-03-14 11:20:00,31.1,18.1,30.24,SW,234,10.0,16.0,58,0.00,,---,0.00,VWS V14.01,2013-03-14 15:20:00,
2013-03-14 11:24:00,30.7,18.1,30.24,WSW,244,5.0,15.0,59,0.00,,---,0.00,VWS V14.01,2013-03-14 15:24:00,
2013-03-14 11:29:00,30.8,19.0,30.24,NW,320,2.0,2.0,61,0.00,,---,0.00,VWS V14.01,2013-03-14 15:29:00,
2013-03-14 11:30:00,30.7,18.9,30.24,East,101,2.0,15.0,61,0.00,,---,0.00,VWS V14.01,2013-03-14 15:30:00,
2013-03-14 11:34:00,31.5,19.2,30.24,WSW,250,4.0,8.0,60,0.00,,---,0.00,VWS V14.01,2013-03-14 15:34:00,
2013-03-14 11:39:00,31.2,18.5,30.23,SSE,157,4.0,4.0,59,0.00,,---,0.00,VWS V14.01,2013-03-14 15:39:00,
2013-03-14 11:40:00,31.2,18.6,30.23,SSW,207,2.0,9.0,59,0.00,,---,0.00,VWS V14.01,2013-03-14 15:40:00,
2013-03-14 11:44:00,31.2,18.2,30.24,NE,54,2.0,14.0,58,0.00,,---,0.00,VWS V14.01,2013-03-14 15:44:00,
2013-03-14 11:49:00,31.2,18.5,30.24,West,261,7.0,7.0,59,0.00,,---,0.00,VWS V14.01,2013-03-14 15:49:00,
2013-03-14 11:50:00,31.2,18.6,30.23,SSE,163,7.0,14.0,59,0.00,,---,0.00,VWS V14.01,2013-03-14 15:50:00,
2013-03-14 11:54:00,31.0,18.8,30.23,WSW,246,6.0,12.0,60,0.00,,---,0.00,VWS V14.01,2013-03-14 15:54:00,
2013-03-14 11:59:00,30.9,18.7,30.23,West,281,2.0,4.0,60,0.00,,---,0.00,VWS V14.01,2013-03-14 15:59:00,
2013-03-14 12:00:00,30.9,18.7,30.23,SW,232,4.0,12.0,60,0.00,,---,0.00,VWS V14.01,2013-03-14 16:00:00,
2013-03-14 12:04:00,31.0,18.4,30.23,East,85,5.0,11.0,59,0.00,,---,0.00,VWS V14.01,2013-03-14 16:04:00,
2013-03-14 12:09:00,31.1,18.5,30.23,SSE,165,1.0,1.0,59,0.00,,---,0.00,VWS V14.01,2013-03-14 16:09:00,
2013-03-14 12:10:00,31.1,18.5,30.23,NNE,28,1.0,11.0,59,0.00,,---,0.00,VWS V14.01,2013-03-14 16:10:00,
2013-03-14 12:14:00,31.3,18.6,30.23,ESE,112,7.0,16.0,59,0.00,,---,0.00,VWS V14.01,2013-03-14 16:14:00,
2013-03-14 12:19:00,31.6,19.3,30.23,West,271,4.0,5.0,60,0.00,,---,0.00,VWS V14.01,2013-03-14 16:19:00,
2013-03-14 12:20:00,31.6,19.3,30.23,SSW,211,1.0,16.0,60,0.00,,---,0.00,VWS V14.01,2013-03-14 16:20:00,
2013-03-14 12:24:00,31.8,18.7,30.23,NNW,337,2.0,10.0,58,0.00,,---,0.00,VWS V14.01,2013-03-14 16:24:00,
2013-03-14 12:29:00,31.7,18.6,30.23,East,81,3.0,7.0,58,0.00,,---,0.00,VWS V14.01,2013-03-14 16:29:00,
2013-03-14 12:30:00,31.7,18.6,30.23,WSW,238,7.0,12.0,58,0.00,,---,0.00,VWS V14.01,2013-03-14 16:30:00,
2013-03-14 12:34:00,31.9,19.2,30.22,WSW,245,6.0,9.0,59,0.00,,---,0.00,VWS V14.01,2013-03-14 16:34:00,
2013-03-14 12:39:00,32.1,19.4,30.23,WSW,242,13.0,13.0,59,0.00,,---,0.00,VWS V14.01,2013-03-14 16:39:00,
2013-03-14 12:40:00,32.0,19.3,30.22,WSW,246,6.0,14.0,59,0.00,,---,0.00,VWS V14.01,2013-03-14 16:40:00,
2013-03-14 12:44:00,32.1,19.0,30.22,WSW,250,3.0,13.0,58,0.00,,---,0.00,VWS V14.01,2013-03-14 16:44:00,
2013-03-14 12:49:00,32.0,18.9,30.23,West,260,4.0,10.0,58,0.00,,---,0.00,VWS V14.01,2013-03-14 16:49:00,
2013-03-14 12:50:00,32.0,18.9,30.23,South,175,8.0,13.0,58,0.00,,---,0.00,VWS V14.01,2013-03-14 16:50:00,
2013-03-14 12:54:00,32.0,19.3,30.22,West,263,2.0,12.0,59,0.00,,---,0.00,VWS V14.01,2013-03-14 16:54:00,
2013-03-14 12:59:00,32.1,19.0,30.22,NNE,15,4.0,7.0,58,0.00,,---,0.00,VWS V14.01,2013-03-14 16:59:00,
2013-03-14 13:00:00,32.2,19.5,30.22,ESE,106,5.0,12.0,59,0.00,,---,0.00,VWS V14.01,2013-03-14 17:00:00,
2013-03-14 13:04:00,32.2,19.1,30.22,SW,223,2.0,15.0,58,0.00,,---,0.00,VWS V14.01,2013-03-14 17:04:00,
2013-03-14 13:09:00,32.6,19.9,30.22,WNW,294,2.0,5.0,59,0.00,,---,0.00,VWS V14.01,2013-03-14 17:09:00,
2013-03-14 13:10:00,32.6,19.9,30.22,SSE,161,4.0,15.0,59,0.00,,---,0.00,VWS V14.01,2013-03-14 17:10:00,
2013-03-14 13:14:00,32.7,20.0,30.22,NW,306,5.0,8.0,59,0.00,,---,0.00,VWS V14.01,2013-03-14 17:14:00,
2013-03-14 13:20:00,33.0,20.2,30.22,WSW,245,2.0,8.0,59,0.00,,---,0.00,VWS V14.01,2013-03-14 17:20:00,
2013-03-14 13:25:00,33.1,20.7,30.22,WSW,245,7.0,8.0,60,0.00,,---,0.00,VWS V14.01,2013-03-14 17:25:00,
2013-03-14 13:30:00,33.3,20.1,30.22,WSW,257,3.0,4.0,58,0.00,,---,0.00,VWS V14.01,2013-03-14 17:30:00,
2013-03-14 13:35:00,33.6,20.8,30.21,SSE,153,1.0,15.0,59,0.00,,---,0.00,VWS V14.01,2013-03-14 17:35:00,
2013-03-14 13:40:00,33.5,19.9,30.21,WSW,253,5.0,5.0,57,0.00,,---,0.00,VWS V14.01,2013-03-14 17:40:00,
2013-03-14 13:45:00,33.9,20.7,30.21,NE,56,1.0,8.0,58,0.00,,---,0.00,VWS V14.01,2013-03-14 17:45:00,
2013-03-14 13:50:00,34.0,20.0,30.21,WSW,244,6.0,11.0,56,0.00,,---,0.00,VWS V14.01,2013-03-14 17:50:00,
2013-03-14 13:55:00,34.5,20.4,30.20,SSW,194,2.0,11.0,56,0.00,,---,0.00,VWS V14.01,2013-03-14 17:55:00,
2013-03-14 14:00:00,35.3,21.6,30.20,SW,230,3.0,8.0,57,0.00,,---,0.00,VWS V14.01,2013-03-14 18:00:00,
2013-03-14 14:05:00,35.8,20.8,30.20,SW,223,9.0,14.0,54,0.00,,---,0.00,VWS V14.01,2013-03-14 18:05:00,
2013-03-14 14:10:00,35.5,20.5,30.20,SSW,199,2.0,6.0,54,0.00,,---,0.00,VWS V14.01,2013-03-14 18:10:00,
2013-03-14 14:15:00,35.4,20.0,30.19,NNE,26,2.0,8.0,53,0.00,,---,0.00,VWS V14.01,2013-03-14 18:15:00,
2013-03-14 14:20:00,35.3,19.9,30.19,NE,34,5.0,5.0,53,0.00,,---,0.00,VWS V14.01,2013-03-14 18:20:00,
2013-03-14 14:25:00,36.1,20.2,30.18,NNW,334,14.0,15.0,52,0.00,,---,0.00,VWS V14.01,2013-03-14 18:25:00,
2013-03-14 14:30:00,36.1,20.6,30.19,WNW,290,4.0,6.0,53,0.00,,---,0.00,VWS V14.01,2013-03-14 18:30:00,
2013-03-14 14:35:00,35.7,19.4,30.18,NNW,330,4.0,14.0,51,0.00,,---,0.00,VWS V14.01,2013-03-14 18:35:00,
2013-03-14 14:40:00,35.4,19.1,30.18,South,183,3.0,11.0,51,0.00,,---,0.00,VWS V14.01,2013-03-14 18:40:00,
2013-03-14 14:45:00,36.4,20.9,30.18,NNW,340,4.0,12.0,53,0.00,,---,0.00,VWS V14.01,2013-03-14 18:45:00,
2013-03-14 14:50:00,36.9,20.5,30.17,East,98,11.0,11.0,51,0.00,,---,0.00,VWS V14.01,2013-03-14 18:50:00,
2013-03-14 14:55:00,37.1,20.2,30.17,SW,219,4.0,18.0,50,0.00,,---,0.00,VWS V14.01,2013-03-14 18:55:00,
2013-03-14 15:00:00,37.2,19.8,30.17,West,271,5.0,12.0,49,0.00,,---,0.00,VWS V14.01,2013-03-14 19:00:00,
2013-03-14 15:05:00,37.9,20.5,30.17,SSW,205,2.0,13.0,49,0.00,,---,0.00,VWS V14.01,2013-03-14 19:05:00,
2013-03-14 15:10:00,37.9,20.5,30.17,WSW,257,3.0,5.0,49,0.00,,---,0.00,VWS V14.01,2013-03-14 19:10:00,
2013-03-14 15:15:00,37.7,20.3,30.16,SSW,194,7.0,12.0,49,0.00,,---,0.00,VWS V14.01,2013-03-14 19:15:00,
2013-03-14 15:20:00,37.9,20.9,30.16,SSE,148,5.0,12.0,50,0.00,,---,0.00,VWS V14.01,2013-03-14 19:20:00,
2013-03-14 15:25:00,37.5,19.1,30.16,ENE,63,7.0,12.0,47,0.00,,---,0.00,VWS V14.01,2013-03-14 19:25:00,
2013-03-14 15:30:00,36.9,19.1,30.16,NE,51,4.0,16.0,48,0.00,,---,0.00,VWS V14.01,2013-03-14 19:30:00,
2013-03-14 15:35:00,37.8,20.4,30.16,ENE,73,4.0,16.0,49,0.00,,---,0.00,VWS V14.01,2013-03-14 19:35:00,
2013-03-14 15:40:00,38.4,19.4,30.16,East,89,3.0,12.0,46,0.00,,---,0.00,VWS V14.01,2013-03-14 19:40:00,
2013-03-14 15:45:00,38.5,20.0,30.16,WSW,237,5.0,12.0,47,0.00,,---,0.00,VWS V14.01,2013-03-14 19:45:00,
2013-03-14 15:50:00,38.4,20.4,30.16,West,261,4.0,8.0,48,0.00,,---,0.00,VWS V14.01,2013-03-14 19:50:00,
2013-03-14 15:55:00,38.8,20.3,30.16,SSW,196,1.0,13.0,47,0.00,,---,0.00,VWS V14.01,2013-03-14 19:55:00,
2013-03-14 16:00:00,38.5,19.0,30.16,South,169,4.0,6.0,45,0.00,,---,0.00,VWS V14.01,2013-03-14 20:00:00,
2013-03-14 16:05:00,37.8,18.4,30.15,SSE,154,4.0,12.0,45,0.00,,---,0.00,VWS V14.01,2013-03-14 20:05:00,
2013-03-14 16:10:00,37.7,18.8,30.15,ENE,76,6.0,14.0,46,0.00,,---,0.00,VWS V14.01,2013-03-14 20:10:00,
2013-03-14 16:15:00,37.3,18.4,30.16,East,90,5.0,14.0,46,0.00,,---,0.00,VWS V14.01,2013-03-14 20:15:00,
2013-03-14 16:20:00,37.5,19.1,30.15,NW,322,3.0,8.0,47,0.00,,---,0.00,VWS V14.01,2013-03-14 20:20:00,
2013-03-14 16:25:00,38.6,19.6,30.15,West,268,10.0,15.0,46,0.00,,---,0.00,VWS V14.01,2013-03-14 20:25:00,
2013-03-14 16:30:00,38.7,19.7,30.16,East,101,6.0,11.0,46,0.00,,---,0.00,VWS V14.01,2013-03-14 20:30:00,
2013-03-14 16:35:00,38.5,19.0,30.16,WSW,250,5.0,11.0,45,0.00,,---,0.00,VWS V14.01,2013-03-14 20:35:00,
2013-03-14 16:40:00,38.8,20.3,30.15,NW,323,5.0,10.0,47,0.00,,---,0.00,VWS V14.01,2013-03-14 20:40:00,
2013-03-14 16:45:00,39.3,19.8,30.15,WSW,244,10.0,14.0,45,0.00,,---,0.00,VWS V14.01,2013-03-14 20:45:00,
2013-03-14 16:50:00,40.1,20.0,30.15,WNW,300,10.0,10.0,44,0.00,,---,0.00,VWS V14.01,2013-03-14 20:50:00,
2013-03-14 16:55:00,39.7,19.6,30.15,SSW,206,4.0,17.0,44,0.00,,---,0.00,VWS V14.01,2013-03-14 20:55:00,
2013-03-14 17:00:00,39.0,19.0,30.15,SW,230,3.0,11.0,44,0.00,,---,0.00,VWS V14.01,2013-03-14 21:00:00,
2013-03-14 17:05:00,39.2,19.1,30.15,NW,315,5.0,13.0,44,0.00,,---,0.00,VWS V14.01,2013-03-14 21:05:00,
2013-03-14 17:10:00,39.4,18.8,30.15,SSW,213,3.0,13.0,43,0.00,,---,0.00,VWS V14.01,2013-03-14 21:10:00,
2013-03-14 17:15:00,39.7,19.0,30.15,West,271,4.0,16.0,43,0.00,,---,0.00,VWS V14.01,2013-03-14 21:15:00,
2013-03-14 17:20:00,39.7,19.6,30.15,NE,35,6.0,8.0,44,0.00,,---,0.00,VWS V14.01,2013-03-14 21:20:00,
2013-03-14 17:25:00,39.1,19.0,30.15,WNW,296,10.0,10.0,44,0.00,,---,0.00,VWS V14.01,2013-03-14 21:25:00,
2013-03-14 17:30:00,38.8,18.8,30.14,NE,52,7.0,12.0,44,0.00,,---,0.00,VWS V14.01,2013-03-14 21:30:00,
2013-03-14 17:36:00,39.2,19.1,30.14,West,277,9.0,13.0,44,0.00,,---,0.00,VWS V14.01,2013-03-14 21:36:00,
2013-03-14 17:40:00,39.2,18.6,30.14,NW,309,14.0,14.0,43,0.00,,---,0.00,VWS V14.01,2013-03-14 21:40:00,
2013-03-14 17:41:00,39.1,18.5,30.14,WSW,248,9.0,14.0,43,0.00,,---,0.00,VWS V14.01,2013-03-14 21:41:00,
2013-03-14 17:46:00,39.1,18.5,30.14,WNW,286,7.0,14.0,43,0.00,,---,0.00,VWS V14.01,2013-03-14 21:46:00,
2013-03-14 17:50:00,39.0,19.0,30.14,North,351,5.0,14.0,44,0.00,,---,0.00,VWS V14.01,2013-03-14 21:50:00,
2013-03-14 17:51:00,39.0,19.0,30.14,WNW,287,7.0,9.0,44,0.00,,---,0.00,VWS V14.01,2013-03-14 21:51:00,
2013-03-14 17:56:00,39.1,19.0,30.14,West,267,6.0,12.0,44,0.00,,---,0.00,VWS V14.01,2013-03-14 21:56:00,
2013-03-14 18:00:00,39.2,19.7,30.14,NW,323,8.0,14.0,45,0.00,,---,0.00,VWS V14.01,2013-03-14 22:00:00,
2013-03-14 18:01:00,39.2,19.1,30.14,WNW,300,7.0,13.0,44,0.00,,---,0.00,VWS V14.01,2013-03-14 22:01:00,
2013-03-14 18:06:00,39.2,19.1,30.14,SE,134,5.0,16.0,44,0.00,,---,0.00,VWS V14.01,2013-03-14 22:06:00,
2013-03-14 18:10:00,39.3,18.7,30.14,South,182,8.0,16.0,43,0.00,,---,0.00,VWS V14.01,2013-03-14 22:10:00,
2013-03-14 18:11:00,39.2,18.0,30.14,WNW,287,8.0,14.0,42,0.00,,---,0.00,VWS V14.01,2013-03-14 22:11:00,
2013-03-14 18:16:00,39.1,18.5,30.14,NW,310,9.0,15.0,43,0.00,,---,0.00,VWS V14.01,2013-03-14 22:16:00,
2013-03-14 18:20:00,39.2,19.1,30.14,SSW,198,3.0,15.0,44,0.00,,---,0.00,VWS V14.01,2013-03-14 22:20:00,
2013-03-14 18:22:00,39.3,19.2,30.14,SSE,149,4.0,5.0,44,0.00,,---,0.00,VWS V14.01,2013-03-14 22:22:00,
2013-03-14 18:27:00,39.2,18.6,30.14,NW,323,6.0,12.0,43,0.00,,---,0.00,VWS V14.01,2013-03-14 22:27:00,
2013-03-14 18:30:00,38.9,18.9,30.14,SW,222,3.0,12.0,44,0.00,,---,0.00,VWS V14.01,2013-03-14 22:30:00,
2013-03-14 18:32:00,38.7,18.7,30.14,North,351,1.0,6.0,44,0.00,,---,0.00,VWS V14.01,2013-03-14 22:32:00,
2013-03-14 18:37:00,38.4,18.9,30.14,WSW,248,3.0,7.0,45,0.00,,---,0.00,VWS V14.01,2013-03-14 22:37:00,
2013-03-14 18:40:00,38.3,18.8,30.15,WNW,303,2.0,7.0,45,0.00,,---,0.00,VWS V14.01,2013-03-14 22:40:00,
2013-03-14 18:42:00,38.2,18.8,30.15,ESE,117,1.0,3.0,45,0.00,,---,0.00,VWS V14.01,2013-03-14 22:42:00,
2013-03-14 18:47:00,38.0,19.1,30.15,NNW,336,5.0,9.0,46,0.00,,---,0.00,VWS V14.01,2013-03-14 22:47:00,
2013-03-14 18:50:00,38.0,19.1,30.15,East,85,3.0,9.0,46,0.00,,---,0.00,VWS V14.01,2013-03-14 22:50:00,
2013-03-14 18:52:00,38.0,18.6,30.15,SW,222,0.0,12.0,45,0.00,,---,0.00,VWS V14.01,2013-03-14 22:52:00,
2013-03-14 18:57:00,37.8,18.4,30.15,WSW,238,4.0,12.0,45,0.00,,---,0.00,VWS V14.01,2013-03-14 22:57:00,
2013-03-14 19:00:00,37.7,18.3,30.15,West,275,5.0,15.0,45,0.00,,---,0.00,VWS V14.01,2013-03-14 23:00:00,
2013-03-14 19:02:00,37.6,18.2,30.15,SSW,196,3.0,12.0,45,0.00,,---,0.00,VWS V14.01,2013-03-14 23:02:00,
2013-03-14 19:08:00,37.4,18.5,30.16,NE,49,0.0,12.0,46,0.00,,---,0.00,VWS V14.01,2013-03-14 23:08:00,
2013-03-14 19:10:00,37.3,18.4,30.16,NW,307,1.0,12.0,46,0.00,,---,0.00,VWS V14.01,2013-03-14 23:10:00,
2013-03-14 19:13:00,37.1,18.8,30.16,ENE,69,0.0,4.0,47,0.00,,---,0.00,VWS V14.01,2013-03-14 23:13:00,
2013-03-14 19:18:00,36.8,18.5,30.16,WNW,303,1.0,8.0,47,0.00,,---,0.00,VWS V14.01,2013-03-14 23:18:00,
2013-03-14 19:20:00,36.7,18.4,30.16,ESE,115,0.0,8.0,47,0.00,,---,0.00,VWS V14.01,2013-03-14 23:20:00,
2013-03-14 19:23:00,36.6,18.3,30.16,NE,39,0.0,4.0,47,0.00,,---,0.00,VWS V14.01,2013-03-14 23:23:00,
2013-03-14 19:28:00,36.3,18.0,30.16,ESE,110,0.0,5.0,47,0.00,,---,0.00,VWS V14.01,2013-03-14 23:28:00,
2013-03-14 19:30:00,36.3,18.5,30.16,SE,137,0.0,5.0,48,0.00,,---,0.00,VWS V14.01,2013-03-14 23:30:00,
2013-03-14 19:33:00,36.1,18.3,30.16,SW,226,0.0,1.0,48,0.00,,---,0.00,VWS V14.01,2013-03-14 23:33:00,
2013-03-14 19:38:00,35.9,18.1,30.16,ESE,112,0.0,7.0,48,0.00,,---,0.00,VWS V14.01,2013-03-14 23:38:00,
2013-03-14 19:40:00,35.8,18.0,30.16,SW,221,3.0,7.0,48,0.00,,---,0.00,VWS V14.01,2013-03-14 23:40:00,
2013-03-14 19:43:00,35.7,18.4,30.16,NE,51,0.0,3.0,49,0.00,,---,0.00,VWS V14.01,2013-03-14 23:43:00,
2013-03-14 19:48:00,35.5,18.2,30.16,SW,227,0.0,4.0,49,0.00,,---,0.00,VWS V14.01,2013-03-14 23:48:00,
2013-03-14 19:50:00,35.4,18.6,30.16,NNE,25,0.0,4.0,50,0.00,,---,0.00,VWS V14.01,2013-03-14 23:50:00,
2013-03-14 19:53:00,35.3,18.5,30.16,ENE,71,0.0,2.0,50,0.00,,---,0.00,VWS V14.01,2013-03-14 23:53:00,
2013-03-14 19:58:00,35.1,18.4,30.16,East,80,0.0,2.0,50,0.00,,---,0.00,VWS V14.01,2013-03-14 23:58:00,
2013-03-14 20:00:00,35.0,18.2,30.16,East,79,0.0,2.0,50,0.00,,---,0.00,VWS V14.01,2013-03-15 00:00:00,
2013-03-14 20:03:00,34.8,18.5,30.16,WSW,245,0.0,1.0,51,0.00,,---,0.00,VWS V14.01,2013-03-15 00:03:00,
2013-03-14 20:08:00,34.4,18.2,30.16,WSW,248,0.0,1.0,51,0.00,,---,0.00,VWS V14.01,2013-03-15 00:08:00,
2013-03-14 20:10:00,34.3,18.1,30.16,WSW,239,0.0,1.0,51,0.00,,---,0.00,VWS V14.01,2013-03-15 00:10:00,
2013-03-14 20:13:00,34.1,18.3,30.16,West,281,0.0,1.0,52,0.00,,---,0.00,VWS V14.01,2013-03-15 00:13:00,
2013-03-14 20:18:00,33.9,18.1,30.16,SW,233,0.0,1.0,52,0.00,,---,0.00,VWS V14.01,2013-03-15 00:18:00,
2013-03-14 20:20:00,33.9,18.1,30.16,SW,234,0.0,1.0,52,0.00,,---,0.00,VWS V14.01,2013-03-15 00:20:00,
2013-03-14 20:23:00,33.5,18.2,30.16,SW,233,0.0,0.0,53,0.00,,---,0.00,VWS V14.01,2013-03-15 00:23:00,
2013-03-14 20:28:00,33.1,17.8,30.16,SW,236,0.0,0.0,53,0.00,,---,0.00,VWS V14.01,2013-03-15 00:28:00,
2013-03-14 20:30:00,33.0,17.8,30.16,SW,236,0.0,0.0,53,0.00,,---,0.00,VWS V14.01,2013-03-15 00:30:00,
2013-03-14 20:33:00,32.9,18.1,30.16,WSW,242,0.0,1.0,54,0.00,,---,0.00,VWS V14.01,2013-03-15 00:33:00,
2013-03-14 20:38:00,33.1,18.3,30.16,WSW,246,0.0,1.0,54,0.00,,---,0.00,VWS V14.01,2013-03-15 00:38:00,
2013-03-14 20:40:00,33.1,18.3,30.16,WSW,245,0.0,1.0,54,0.00,,---,0.00,VWS V14.01,2013-03-15 00:40:00,
2013-03-14 20:43:00,33.1,18.3,30.16,WSW,250,0.0,0.0,54,0.00,,---,0.00,VWS V14.01,2013-03-15 00:43:00,
2013-03-14 20:48:00,32.7,18.3,30.16,WSW,253,0.0,0.0,55,0.00,,---,0.00,VWS V14.01,2013-03-15 00:48:00,
2013-03-14 20:50:00,32.6,18.2,30.16,WSW,256,0.0,0.0,55,0.00,,---,0.00,VWS V14.01,2013-03-15 00:50:00,
2013-03-14 20:53:00,32.3,18.0,30.16,WSW,256,0.0,0.0,55,0.00,,---,0.00,VWS V14.01,2013-03-15 00:53:00,
2013-03-14 20:58:00,32.0,18.1,30.16,WSW,256,0.0,0.0,56,0.00,,---,0.00,VWS V14.01,2013-03-15 00:58:00,
2013-03-14 21:00:00,32.0,18.1,30.16,WSW,256,0.0,0.0,56,0.00,,---,0.00,VWS V14.01,2013-03-15 01:00:00,
2013-03-14 21:03:00,31.7,17.8,30.16,WSW,256,0.0,0.0,56,0.00,,---,0.00,VWS V14.01,2013-03-15 01:03:00,
2013-03-14 21:08:00,31.4,17.9,30.16,WSW,256,0.0,0.0,57,0.00,,---,0.00,VWS V14.01,2013-03-15 01:08:00,
2013-03-14 21:10:00,31.4,17.9,30.16,WSW,256,0.0,0.0,57,0.00,,---,0.00,VWS V14.01,2013-03-15 01:10:00,
2013-03-14 21:13:00,31.4,18.4,30.16,WSW,256,0.0,0.0,58,0.00,,---,0.00,VWS V14.01,2013-03-15 01:13:00,
2013-03-14 21:18:00,31.3,18.2,30.16,WSW,256,0.0,0.0,58,0.00,,---,0.00,VWS V14.01,2013-03-15 01:18:00,
2013-03-14 21:20:00,31.3,18.2,30.16,WSW,256,0.0,0.0,58,0.00,,---,0.00,VWS V14.01,2013-03-15 01:20:00,
2013-03-14 21:23:00,31.4,18.4,30.16,WSW,256,0.0,0.0,58,0.00,,---,0.00,VWS V14.01,2013-03-15 01:23:00,
2013-03-14 21:28:00,31.4,18.7,30.16,WSW,256,0.0,0.0,59,0.00,,---,0.00,VWS V14.01,2013-03-15 01:28:00,
2013-03-14 21:30:00,31.4,18.7,30.16,WSW,256,0.0,0.0,59,0.00,,---,0.00,VWS V14.01,2013-03-15 01:30:00,
2013-03-14 21:33:00,31.2,18.5,30.16,WSW,256,0.0,0.0,59,0.00,,---,0.00,VWS V14.01,2013-03-15 01:33:00,
2013-03-14 21:38:00,30.4,19.0,30.16,WSW,256,0.0,0.0,62,0.00,,---,0.00,VWS V14.01,2013-03-15 01:38:00,
2013-03-14 21:40:00,30.3,18.9,30.16,WSW,256,0.0,0.0,62,0.00,,---,0.00,VWS V14.01,2013-03-15 01:40:00,
2013-03-14 21:43:00,29.8,18.8,30.16,WSW,256,0.0,0.0,63,0.00,,---,0.00,VWS V14.01,2013-03-15 01:43:00,
2013-03-14 21:48:00,29.2,18.5,30.16,WSW,256,0.0,0.0,64,0.00,,---,0.00,VWS V14.01,2013-03-15 01:48:00,
2013-03-14 21:50:00,29.2,18.5,30.16,WSW,256,0.0,0.0,64,0.00,,---,0.00,VWS V14.01,2013-03-15 01:50:00,
2013-03-14 21:53:00,28.6,18.3,30.16,WSW,256,0.0,0.0,65,0.00,,---,0.00,VWS V14.01,2013-03-15 01:53:00,
2013-03-14 21:58:00,28.0,18.8,30.16,WSW,256,0.0,0.0,68,0.00,,---,0.00,VWS V14.01,2013-03-15 01:58:00,
2013-03-14 22:00:00,27.9,18.7,30.16,WSW,256,0.0,0.0,68,0.00,,---,0.00,VWS V14.01,2013-03-15 02:00:00,
2013-03-14 22:03:00,27.6,18.4,30.17,WSW,256,0.0,0.0,68,0.00,,---,0.00,VWS V14.01,2013-03-15 02:03:00,
2013-03-14 22:08:00,27.3,18.1,30.17,WSW,256,0.0,0.0,68,0.00,,---,0.00,VWS V14.01,2013-03-15 02:08:00,
2013-03-14 22:10:00,27.2,18.4,30.17,WSW,256,0.0,0.0,69,0.00,,---,0.00,VWS V14.01,2013-03-15 02:10:00,
2013-03-14 22:13:00,26.9,19.1,30.17,WSW,256,0.0,0.0,72,0.00,,---,0.00,VWS V14.01,2013-03-15 02:13:00,
2013-03-14 22:19:00,26.7,19.2,30.17,WSW,256,0.0,0.0,73,0.00,,---,0.00,VWS V14.01,2013-03-15 02:19:00,
2013-03-14 22:20:00,26.7,19.5,30.17,WSW,257,0.0,0.0,74,0.00,,---,0.00,VWS V14.01,2013-03-15 02:20:00,
2013-03-14 22:24:00,26.7,19.5,30.17,WSW,256,0.0,0.0,74,0.00,,---,0.00,VWS V14.01,2013-03-15 02:24:00,
2013-03-14 22:29:00,26.5,19.0,30.17,WSW,256,0.0,0.0,73,0.00,,---,0.00,VWS V14.01,2013-03-15 02:29:00,
2013-03-14 22:30:00,26.5,19.0,30.17,WSW,256,0.0,0.0,73,0.00,,---,0.00,VWS V14.01,2013-03-15 02:30:00,
2013-03-14 22:34:00,26.2,19.4,30.18,WSW,256,0.0,0.0,75,0.00,,---,0.00,VWS V14.01,2013-03-15 02:34:00,
2013-03-14 22:39:00,25.8,18.7,30.18,WSW,256,0.0,0.0,74,0.00,,---,0.00,VWS V14.01,2013-03-15 02:39:00,
2013-03-14 22:40:00,25.7,18.6,30.18,WSW,256,0.0,0.0,74,0.00,,---,0.00,VWS V14.01,2013-03-15 02:40:00,
2013-03-14 22:44:00,25.4,18.9,30.18,WSW,256,0.0,0.0,76,0.00,,---,0.00,VWS V14.01,2013-03-15 02:44:00,
2013-03-14 22:49:00,25.8,19.3,30.18,WSW,256,0.0,0.0,76,0.00,,---,0.00,VWS V14.01,2013-03-15 02:49:00,
2013-03-14 22:50:00,25.8,19.3,30.18,WSW,256,0.0,0.0,76,0.00,,---,0.00,VWS V14.01,2013-03-15 02:50:00,
2013-03-14 22:54:00,26.0,19.5,30.18,WSW,256,0.0,0.0,76,0.00,,---,0.00,VWS V14.01,2013-03-15 02:54:00,
2013-03-14 22:59:00,25.7,19.2,30.18,WSW,256,0.0,0.0,76,0.00,,---,0.00,VWS V14.01,2013-03-15 02:59:00,
2013-03-14 23:00:00,25.6,19.1,30.18,WSW,256,0.0,0.0,76,0.00,,---,0.00,VWS V14.01,2013-03-15 03:00:00,
2013-03-14 23:04:00,25.4,19.5,30.18,WSW,256,0.0,0.0,78,0.00,,---,0.00,VWS V14.01,2013-03-15 03:04:00,
2013-03-14 23:09:00,25.2,19.6,30.18,WSW,256,0.0,0.0,79,0.00,,---,0.00,VWS V14.01,2013-03-15 03:09:00,
2013-03-14 23:10:00,25.2,19.6,30.18,WSW,256,0.0,0.0,79,0.00,,---,0.00,VWS V14.01,2013-03-15 03:10:00,
2013-03-14 23:14:00,25.4,19.2,30.18,WSW,256,0.0,0.0,77,0.00,,---,0.00,VWS V14.01,2013-03-15 03:14:00,
2013-03-14 23:19:00,25.2,19.0,30.17,WSW,257,0.0,0.0,77,0.00,,---,0.00,VWS V14.01,2013-03-15 03:19:00,
2013-03-14 23:20:00,25.2,19.0,30.17,WSW,256,0.0,0.0,77,0.00,,---,0.00,VWS V14.01,2013-03-15 03:20:00,
2013-03-14 23:24:00,25.2,19.9,30.18,WSW,256,0.0,0.0,80,0.00,,---,0.00,VWS V14.01,2013-03-15 03:24:00,
2013-03-14 23:29:00,25.3,19.7,30.18,WSW,256,0.0,0.0,79,0.00,,---,0.00,VWS V14.01,2013-03-15 03:29:00,
2013-03-14 23:30:00,25.3,19.7,30.18,WSW,257,0.0,0.0,79,0.00,,---,0.00,VWS V14.01,2013-03-15 03:30:00,
2013-03-14 23:34:00,25.3,19.7,30.17,WSW,256,0.0,0.0,79,0.00,,---,0.00,VWS V14.01,2013-03-15 03:34:00,
2013-03-14 23:39:00,25.1,19.5,30.17,WSW,256,0.0,0.0,79,0.00,,---,0.00,VWS V14.01,2013-03-15 03:39:00,
2013-03-14 23:40:00,25.1,19.5,30.17,WSW,256,0.0,0.0,79,0.00,,---,0.00,VWS V14.01,2013-03-15 03:40:00,